Terminal Aerodrome Forecast
Issued by NWS Topeka, KS

Home | Current Version | Previous Version | Text Only | Print | Product List | Glossary On
Versions: 1 2 3 4 5 6 7 8 9 10 11 12 13
972
FTUS43 KTOP 241730
TAFTOP
TAF
KTOP 241730Z 2418/2518 35007KT P6SM SCT100
     FM242200 34006KT P6SM VCSH SCT050 OVC070
     FM250900 34005KT 5SM -RA OVC015
     FM251300 33005KT 5SM -RA OVC008=

USA.gov is the U.S. government's official web portal to all federal, state and local government web resources and services.